Time;durP1;ratioP1;P1;durP2;ratioP2;P2;SDS_P1;SDS_P2;PMS_P1;PMS_P2;Temp;Humidity;BMP_temperature;BMP_pressure;BME280_temperature;BME280_humidity;BME280_pressure;Samples;Min_cycle;Max_cycle;Signal;HPM_P1;HPM_P2
2022/05/30 00:01:32;;;;;;;7.43;1.63;;;;;;;8.13;88.48;101254.56;5031427;28;20104;-85
2022/05/30 00:03:57;;;;;;;5.03;1.30;;;;;;;8.16;88.67;101264.78;5030516;28;20029;-86
2022/05/30 00:06:23;;;;;;;4.47;1.30;;;;;;;8.14;88.91;101250.88;5030352;28;20036;-85
2022/05/30 00:08:51;;;;;;;7.90;1.98;;;;;;;8.16;88.96;101254.13;5012950;28;20404;-85
2022/05/30 00:11:17;;;;;;;9.60;2.10;;;;;;;8.11;88.97;101245.97;5030548;28;20466;-85
2022/05/30 00:13:46;;;;;;;9.23;1.80;;;;;;;8.08;88.88;101246.44;5018931;28;20026;-85
2022/05/30 00:16:15;;;;;;;6.53;1.90;;;;;;;8.08;89.24;101246.44;5011784;28;20040;-85
2022/05/30 00:18:41;;;;;;;12.40;1.85;;;;;;;8.06;89.62;101252.00;5012829;28;20053;-85
2022/05/30 00:21:07;;;;;;;9.33;1.80;;;;;;;7.99;89.44;101246.78;5011705;28;20057;-85
2022/05/30 00:23:32;;;;;;;10.75;1.85;;;;;;;7.99;89.73;101244.13;5011264;28;20021;-84
2022/05/30 00:25:58;;;;;;;11.37;2.23;;;;;;;7.98;90.06;101253.16;5012353;28;20044;-84
2022/05/30 00:28:23;;;;;;;6.47;1.83;;;;;;;7.96;90.31;101252.59;5014805;28;20032;-84
2022/05/30 00:30:49;;;;;;;10.13;1.93;;;;;;;7.94;90.77;101246.66;5020329;28;20105;-84
2022/05/30 00:33:16;;;;;;;9.30;1.45;;;;;;;7.92;91.03;101247.94;5032923;28;20099;-85
2022/05/30 00:35:43;;;;;;;9.80;1.35;;;;;;;7.89;91.30;101246.53;5018929;28;20030;-85
2022/05/30 00:38:11;;;;;;;8.55;1.73;;;;;;;7.91;90.88;101244.44;5014129;28;20519;-85
2022/05/30 00:40:38;;;;;;;6.40;1.50;;;;;;;7.90;91.03;101242.81;5030602;28;20040;-85
2022/05/30 00:43:24;;;;;;;8.73;1.80;;;;;;;7.87;91.23;101243.28;5029894;28;20027;-85
2022/05/30 00:45:50;;;;;;;6.67;1.70;;;;;;;7.79;91.59;101236.41;5027978;28;20814;-85
2022/05/30 00:48:18;;;;;;;8.43;1.92;;;;;;;7.81;91.97;101229.00;5030069;28;20029;-85
2022/05/30 00:50:44;;;;;;;13.15;1.90;;;;;;;7.81;92.06;101245.00;5029973;28;20105;-85
2022/05/30 00:53:10;;;;;;;8.50;1.70;;;;;;;7.79;92.23;101235.63;5029249;28;20037;-85
2022/05/30 00:55:36;;;;;;;6.00;1.58;;;;;;;7.81;92.06;101236.19;5028866;28;20051;-86
2022/05/30 00:58:03;;;;;;;6.70;1.60;;;;;;;7.77;92.09;101232.34;5028706;28;20120;-85
2022/05/30 01:00:28;;;;;;;9.20;1.85;;;;;;;7.74;92.35;101233.63;5026890;28;20065;-85
2022/05/30 01:08:32;;;;;;;8.02;1.50;;;;;;;7.75;92.57;101229.94;5030079;28;20111;-85
2022/05/30 01:10:57;;;;;;;7.57;1.77;;;;;;;7.76;93.25;101230.72;5028461;28;20017;-85
2022/05/30 01:13:27;;;;;;;7.90;1.73;;;;;;;7.73;92.92;101221.34;5026424;28;20030;-85
2022/05/30 01:15:56;;;;;;;9.57;1.50;;;;;;;7.79;92.86;101232.94;5008243;28;20032;-86
2022/05/30 01:18:45;;;;;;;6.78;1.80;;;;;;;7.77;92.74;101225.16;5026837;28;20031;-85
2022/05/30 01:21:48;;;;;;;6.28;1.33;;;;;;;7.79;92.88;101228.41;5027155;28;20025;-85
2022/05/30 01:28:29;;;;;;;9.50;1.40;;;;;;;7.82;92.90;101227.94;5030001;28;20467;-85
2022/05/30 01:31:28;;;;;;;6.85;1.67;;;;;;;7.83;92.97;101228.78;5024128;28;20034;-85
2022/05/30 01:33:53;;;;;;;8.50;1.65;;;;;;;7.82;93.29;101219.94;5030066;28;20167;-85
2022/05/30 01:36:23;;;;;;;7.13;1.83;;;;;;;7.79;93.33;101216.94;5015769;28;20109;-85
2022/05/30 01:38:48;;;;;;;8.05;1.50;;;;;;;7.82;93.20;101217.28;5009902;28;20034;-86
2022/05/30 01:41:14;;;;;;;7.40;1.93;;;;;;;7.81;93.60;101218.31;5009362;28;20026;-85
2022/05/30 01:43:39;;;;;;;9.13;1.70;;;;;;;7.80;93.42;101214.03;5007263;28;20424;-85
2022/05/30 01:46:07;;;;;;;7.13;1.40;;;;;;;7.80;93.77;101214.03;5524068;22;20061;-86
2022/05/30 01:48:33;;;;;;;7.60;1.50;;;;;;;7.78;93.56;101205.44;5029790;28;20469;-85
2022/05/30 01:51:00;;;;;;;5.15;1.70;;;;;;;7.77;93.93;101203.00;5029575;28;20028;-85
2022/05/30 01:53:31;;;;;;;9.90;1.67;;;;;;;7.77;93.88;101205.69;5010919;28;20440;-86
2022/05/30 01:55:57;;;;;;;7.50;1.90;;;;;;;7.72;94.21;101209.84;5875831;22;20054;-86
2022/05/30 01:58:22;;;;;;;8.87;1.87;;;;;;;7.69;94.39;101206.81;5029244;28;20303;-85
2022/05/30 02:00:48;;;;;;;7.67;1.57;;;;;;;7.63;94.66;101197.88;5028543;28;20807;-85
2022/05/30 02:03:14;;;;;;;6.57;1.80;;;;;;;7.56;94.87;101202.50;5027890;28;20036;-85
2022/05/30 02:05:40;;;;;;;12.50;1.97;;;;;;;7.48;95.01;101200.19;5029076;28;20033;-85
2022/05/30 02:08:09;;;;;;;7.53;1.80;;;;;;;7.36;95.57;101192.13;5029634;28;20087;-85
2022/05/30 02:10:34;;;;;;;8.48;1.90;;;;;;;7.33;95.71;101204.03;5015683;28;20022;-85
2022/05/30 02:13:01;;;;;;;6.07;1.80;;;;;;;7.28;96.18;101206.59;5019560;28;20041;-86
2022/05/30 02:15:27;;;;;;;11.65;1.77;;;;;;;7.23;96.42;101211.78;5364097;22;20056;-85
2022/05/30 02:17:54;;;;;;;8.93;1.77;;;;;;;7.20;96.62;101198.91;5030091;28;20027;-86
2022/05/30 02:20:19;;;;;;;8.77;1.60;;;;;;;7.18;96.92;101204.47;5029803;28;20029;-86
2022/05/30 02:22:45;;;;;;;10.30;1.73;;;;;;;7.16;97.29;101195.88;5027713;28;20362;-85
2022/05/30 02:25:12;;;;;;;6.67;1.70;;;;;;;7.19;97.52;101210.59;5552492;22;20049;-85
2022/05/30 02:27:38;;;;;;;8.20;1.83;;;;;;;7.20;97.55;101201.56;5029463;28;20038;-85
2022/05/30 02:30:08;;;;;;;11.43;2.00;;;;;;;7.08;97.76;101193.53;5036974;22;20049;-85
2022/05/30 02:39:01;;;;;;;5.97;1.70;;;;;;;7.19;97.16;101199.94;5006833;28;20079;-85
2022/05/30 02:41:27;;;;;;;11.15;1.90;;;;;;;7.13;96.89;101199.78;5013407;28;20022;-85
2022/05/30 02:43:52;;;;;;;8.33;2.20;;;;;;;7.07;97.41;101192.72;5013439;28;20066;-85
2022/05/30 02:46:18;;;;;;;9.20;1.90;;;;;;;7.04;97.57;101201.16;5013511;28;20026;-85
2022/05/30 02:48:43;;;;;;;8.77;2.13;;;;;;;6.99;97.67;101201.00;5014065;28;20057;-86
2022/05/30 02:51:09;;;;;;;8.25;1.98;;;;;;;6.96;97.80;101198.78;5013017;28;20521;-85
2022/05/30 02:53:37;;;;;;;7.27;2.20;;;;;;;6.91;97.78;101196.00;5012220;28;20108;-86
2022/05/30 02:56:18;;;;;;;7.80;1.92;;;;;;;6.75;97.79;101179.59;5063300;22;20049;-85
2022/05/30 02:59:05;;;;;;;9.18;2.20;;;;;;;6.78;98.20;101197.78;5032983;28;20028;-85
2022/05/30 03:01:33;;;;;;;9.80;1.88;;;;;;;6.61;98.31;101170.13;5032573;28;20026;-86
2022/05/30 03:03:59;;;;;;;7.47;2.50;;;;;;;6.74;98.36;101190.47;5030978;28;20033;-86
2022/05/30 03:06:25;;;;;;;8.25;2.10;;;;;;;6.75;98.80;101195.59;5380885;22;20015;-87
2022/05/30 03:08:51;;;;;;;5.53;2.08;;;;;;;6.73;98.96;101195.00;5032961;28;20065;-88
2022/05/30 03:11:16;;;;;;;8.90;2.13;;;;;;;6.73;99.14;101197.66;5032767;28;20029;-86
2022/05/30 03:14:19;;;;;;;7.13;2.10;;;;;;;6.74;98.90;101195.78;5105008;22;20048;-86
2022/05/30 03:16:45;;;;;;;13.45;2.40;;;;;;;6.70;99.34;101191.94;5012074;28;20065;-86
2022/05/30 03:19:13;;;;;;;10.40;2.40;;;;;;;6.61;99.32;101178.09;5012315;28;20096;-86
2022/05/30 03:21:39;;;;;;;9.65;2.63;;;;;;;6.75;99.78;101198.25;5011290;28;20048;-86
2022/05/30 03:24:07;;;;;;;8.13;2.37;;;;;;;6.77;99.72;101193.47;5012335;28;20034;-86
2022/05/30 03:26:33;;;;;;;9.80;2.53;;;;;;;6.78;99.34;101200.44;5012922;28;20076;-87
2022/05/30 03:28:59;;;;;;;9.87;2.23;;;;;;;6.77;99.59;101201.47;5013011;28;20033;-86
2022/05/30 03:31:26;;;;;;;10.95;3.03;;;;;;;6.74;100.00;101203.78;4997566;28;20389;-86
2022/05/30 03:33:51;;;;;;;7.97;2.60;;;;;;;6.73;100.00;101205.63;5009341;28;20034;-85
2022/05/30 03:36:25;;;;;;;10.77;2.70;;;;;;;6.73;100.00;101205.63;5013130;28;20036;-84
2022/05/30 03:38:50;;;;;;;8.05;2.38;;;;;;;6.76;100.00;101207.03;4994938;28;20051;-84
2022/05/30 03:41:15;;;;;;;10.27;2.83;;;;;;;6.77;100.00;101211.34;5010665;28;20047;-85
2022/05/30 03:43:42;;;;;;;6.37;2.67;;;;;;;6.75;100.00;101208.91;5024316;28;20028;-85
2022/05/30 03:46:11;;;;;;;8.02;2.97;;;;;;;6.77;100.00;101216.66;5017230;28;20038;-83
2022/05/30 03:48:38;;;;;;;7.18;2.72;;;;;;;6.79;100.00;101219.91;5009680;28;20030;-84
2022/05/30 03:51:07;;;;;;;10.80;2.75;;;;;;;6.78;100.00;101223.63;5029211;28;20397;-85
2022/05/30 03:53:32;;;;;;;10.27;3.20;;;;;;;6.82;100.00;101225.59;5016548;28;20126;-84
2022/05/30 03:55:58;;;;;;;6.93;2.60;;;;;;;6.85;100.00;101221.66;5016770;28;20045;-85
2022/05/30 03:58:23;;;;;;;8.90;3.33;;;;;;;6.89;100.00;101222.06;4999689;28;20030;-86
2022/05/30 04:00:51;;;;;;;9.53;3.33;;;;;;;6.90;100.00;101215.69;5010468;28;20034;-87
2022/05/30 04:03:16;;;;;;;7.18;2.80;;;;;;;6.86;100.00;101215.31;5013367;28;20037;-87
2022/05/30 04:05:41;;;;;;;9.13;3.05;;;;;;;6.88;100.00;101209.78;4994022;28;20026;-87
2022/05/30 04:08:07;;;;;;;6.90;3.57;;;;;;;6.95;100.00;101218.47;5020947;28;20393;-86
2022/05/30 04:10:33;;;;;;;16.13;3.60;;;;;;;7.03;100.00;101220.06;5011217;28;20030;-86
2022/05/30 04:13:24;;;;;;;10.10;3.67;;;;;;;7.10;100.00;101215.44;5010591;28;20477;-86
2022/05/30 04:15:49;;;;;;;10.93;4.00;;;;;;;7.21;100.00;101211.19;5009873;28;20401;-84
2022/05/30 04:18:16;;;;;;;9.00;3.70;;;;;;;7.26;100.00;101209.47;5013546;28;20041;-89
2022/05/30 04:20:41;;;;;;;10.45;4.03;;;;;;;7.36;100.00;101216.94;5012570;28;20045;-92
2022/05/30 04:28:12;;;;;;;14.15;3.92;;;;;;;7.48;99.55;101203.63;5050626;28;20068;-88
2022/05/30 04:31:09;;;;;;;13.03;4.73;;;;;;;7.63;99.48;101213.06;5050119;28;20033;-92
2022/05/30 04:39:09;;;;;;;12.55;4.90;;;;;;;7.75;98.62;101211.25;5182567;22;20049;-95
2022/05/30 04:42:17;;;;;;;14.35;4.93;;;;;;;7.79;98.68;101222.28;5034634;28;20071;-94
2022/05/30 05:13:45;;;;;;;14.20;5.25;;;;;;;7.98;96.92;101205.13;4997369;28;20138;-96
2022/05/30 05:16:18;;;;;;;13.77;5.00;;;;;;;8.17;97.35;101208.50;5012572;28;20053;-88
2022/05/30 05:18:44;;;;;;;14.55;4.88;;;;;;;8.54;96.47;101244.88;5010768;28;20026;-86
2022/05/30 05:21:32;;;;;;;13.83;4.67;;;;;;;8.75;95.42;101232.75;5016940;28;20511;-87
2022/05/30 05:23:59;;;;;;;14.15;5.28;;;;;;;8.90;94.54;101239.44;5024702;28;20029;-85
2022/05/30 05:26:25;;;;;;;10.90;4.82;;;;;;;9.06;93.62;101246.72;5029582;28;20077;-91
2022/05/30 05:28:51;;;;;;;11.95;4.82;;;;;;;9.23;92.95;101236.09;5028250;28;20103;-90
2022/05/30 05:31:31;;;;;;;15.87;5.40;;;;;;;9.47;92.33;101237.84;5028338;28;20485;-89
2022/05/30 05:33:57;;;;;;;16.33;4.60;;;;;;;9.75;91.21;101246.91;5032430;28;20060;-90
2022/05/30 05:36:28;;;;;;;14.70;4.87;;;;;;;9.93;89.36;101245.84;5030628;28;20025;-90
2022/05/30 05:38:53;;;;;;;13.33;4.23;;;;;;;10.11;88.54;101247.50;5030073;28;20379;-89
2022/05/30 05:41:19;;;;;;;10.75;4.43;;;;;;;10.23;86.94;101252.72;5045248;22;20029;-89
2022/05/30 05:43:44;;;;;;;11.83;4.50;;;;;;;10.36;86.60;101255.09;5054436;22;20041;-89
2022/05/30 05:46:18;;;;;;;11.30;4.00;;;;;;;10.42;85.76;101251.44;5030241;28;20037;-90
2022/05/30 05:48:43;;;;;;;12.40;4.30;;;;;;;10.37;85.19;101259.41;5030248;28;20025;-90
2022/05/30 05:51:09;;;;;;;14.57;4.13;;;;;;;10.32;84.77;101264.66;5011360;28;20051;-89
2022/05/30 05:53:36;;;;;;;13.67;4.47;;;;;;;10.77;83.85;101262.09;5030737;28;20025;-90
2022/05/30 05:56:23;;;;;;;9.30;4.43;;;;;;;11.55;81.23;101267.25;5024039;28;20495;-90
2022/05/30 05:58:49;;;;;;;10.75;4.00;;;;;;;11.82;75.86;101275.31;4993497;28;20094;-91
2022/05/30 06:01:34;;;;;;;8.03;4.03;;;;;;;11.41;77.93;101260.69;5019952;28;20026;-90
2022/05/30 06:04:03;;;;;;;12.20;3.70;;;;;;;10.99;78.74;101273.63;5207147;22;20052;-87
2022/05/30 06:06:29;;;;;;;12.13;4.20;;;;;;;10.77;79.90;101262.91;5030307;28;20033;-89
2022/05/30 06:08:56;;;;;;;11.30;4.00;;;;;;;10.91;80.27;101268.72;5032441;28;20112;-88
2022/05/30 06:11:23;;;;;;;9.60;3.87;;;;;;;10.99;80.05;101268.28;5032135;28;20096;-89
2022/05/30 06:13:50;;;;;;;8.90;3.70;;;;;;;11.22;79.95;101258.34;5090642;22;20348;-89
2022/05/30 06:16:23;;;;;;;9.10;3.38;;;;;;;11.32;77.91;101257.66;5053592;22;20099;-89
2022/05/30 06:18:50;;;;;;;9.48;3.60;;;;;;;11.43;78.09;101258.56;5038179;28;20037;-87
2022/05/30 06:21:16;;;;;;;10.55;3.65;;;;;;;11.59;78.38;101271.06;5029005;28;20032;-88
2022/05/30 06:23:55;;;;;;;10.70;4.00;;;;;;;11.79;78.73;101273.13;5245473;22;20016;-90
2022/05/30 06:26:23;;;;;;;12.30;4.10;;;;;;;11.86;76.21;101274.81;5033370;28;20245;-90
2022/05/30 06:28:49;;;;;;;9.25;2.97;;;;;;;11.89;73.07;101276.97;5012665;28;20397;-88
2022/05/30 06:31:17;;;;;;;9.93;2.60;;;;;;;11.86;73.28;101275.63;5029288;28;20033;-88
2022/05/30 06:33:45;;;;;;;7.97;3.10;;;;;;;11.93;75.24;101278.09;5012898;28;20288;-90
2022/05/30 06:36:13;;;;;;;11.27;3.70;;;;;;;12.05;74.71;101284.13;5031779;28;20040;-89
2022/05/30 06:38:42;;;;;;;10.13;3.67;;;;;;;12.11;75.49;101282.28;5031043;28;20069;-85
2022/05/30 06:41:17;;;;;;;10.73;3.70;;;;;;;12.11;73.64;101282.28;5029866;28;20049;-85
2022/05/30 06:43:53;;;;;;;6.30;2.92;;;;;;;12.30;72.83;101273.81;5018248;28;20491;-85
2022/05/30 06:46:19;;;;;;;7.32;2.20;;;;;;;12.31;69.02;101267.38;5027207;28;20485;-86
2022/05/30 06:48:46;;;;;;;8.70;2.67;;;;;;;12.40;67.85;101287.34;5031354;28;20036;-86
2022/05/30 06:51:55;;;;;;;5.53;2.38;;;;;;;12.64;68.86;101290.44;5424290;22;20070;-86
2022/05/30 06:54:33;;;;;;;8.52;2.05;;;;;;;12.84;69.11;101259.34;5028155;28;20087;-85
2022/05/30 07:00:25;;;;;;;6.85;2.10;;;;;;;13.30;66.99;101289.09;5004996;28;20049;-88
2022/05/30 07:02:52;;;;;;;4.40;1.50;;;;;;;12.62;64.04;101281.81;5008534;28;20033;-87
2022/05/30 07:05:17;;;;;;;6.87;1.80;;;;;;;12.23;67.47;101290.97;5012142;28;20308;-85
2022/05/30 07:07:43;;;;;;;6.55;1.60;;;;;;;11.68;66.21;101287.53;5007588;28;20076;-86
2022/05/30 07:10:10;;;;;;;5.67;1.50;;;;;;;11.34;67.36;101279.66;5009639;28;20041;-86
2022/05/30 07:12:35;;;;;;;6.03;1.30;;;;;;;11.24;69.65;101276.84;5012520;28;20030;-86
2022/05/30 07:15:00;;;;;;;10.67;1.50;;;;;;;11.27;68.24;101289.78;5009943;28;20029;-86
2022/05/30 07:17:26;;;;;;;8.30;1.30;;;;;;;11.52;69.82;101284.69;5012026;28;20037;-86
2022/05/30 07:19:52;;;;;;;6.00;1.50;;;;;;;12.15;68.59;101285.25;5012692;28;20076;-86
2022/05/30 07:22:17;;;;;;;14.17;2.37;;;;;;;12.82;63.77;101283.00;5011549;28;20658;-86
2022/05/30 07:24:43;;;;;;;6.03;1.80;;;;;;;13.31;61.52;101279.97;5010996;28;20032;-85
2022/05/30 07:27:09;;;;;;;5.88;1.73;;;;;;;14.10;63.82;101281.69;5007640;28;20095;-85
2022/05/30 07:29:36;;;;;;;5.43;1.60;;;;;;;14.78;59.69;101287.81;5008676;28;20030;-85
2022/05/30 07:32:09;;;;;;;4.72;1.20;;;;;;;15.24;55.73;101290.31;5006922;28;20091;-85
2022/05/30 07:34:37;;;;;;;3.92;1.10;;;;;;;15.22;52.70;101292.47;5039922;22;20041;-86
2022/05/30 07:37:08;;;;;;;6.45;1.23;;;;;;;15.10;51.72;101284.69;5013217;28;20065;-85
2022/05/30 07:39:38;;;;;;;4.22;1.20;;;;;;;14.97;53.51;101296.09;5025095;28;20037;-86
2022/05/30 07:42:04;;;;;;;4.93;0.90;;;;;;;14.85;51.37;101299.09;5021272;28;20406;-87
2022/05/30 07:44:30;;;;;;;6.13;1.10;;;;;;;14.88;53.51;101295.06;5030501;28;20295;-87
2022/05/30 07:46:56;;;;;;;3.78;0.85;;;;;;;14.82;53.15;101288.84;5032987;28;20440;-87
2022/05/30 07:49:22;;;;;;;4.68;1.30;;;;;;;14.50;53.75;101284.59;5031669;28;20025;-87
2022/05/30 07:51:50;;;;;;;5.22;1.17;;;;;;;14.54;53.94;101269.50;5030212;28;20107;-87
2022/05/30 07:54:16;;;;;;;4.27;0.90;;;;;;;14.73;52.49;101271.63;5378678;22;20053;-87
2022/05/30 07:56:51;;;;;;;5.00;1.08;;;;;;;14.82;52.28;101267.28;5031738;28;20021;-87
2022/05/30 07:59:28;;;;;;;3.37;0.80;;;;;;;14.97;52.66;101251.00;5030837;28;20469;-87
2022/05/30 08:01:53;;;;;;;5.67;0.80;;;;;;;15.32;49.63;101247.63;5026411;28;20311;-86
2022/05/30 08:04:43;;;;;;;3.58;0.90;;;;;;;15.97;52.40;101279.03;5431564;22;20046;-87
2022/05/30 08:07:09;;;;;;;4.73;1.10;;;;;;;16.15;49.09;101281.03;5031100;28;20048;-87
2022/05/30 08:09:52;;;;;;;6.27;1.27;;;;;;;16.24;50.50;101256.09;5013173;28;20300;-87
2022/05/30 08:28:34;;;;;;;4.90;0.82;;;;;;;15.78;49.30;101277.00;5037836;22;20049;-87
2022/05/30 08:31:00;;;;;;;4.50;0.90;;;;;;;15.82;49.50;101280.75;5030067;28;20039;-86
2022/05/30 08:33:30;;;;;;;7.60;0.90;;;;;;;15.67;49.79;101262.75;5311429;22;20597;-86
2022/05/30 08:36:18;;;;;;;4.25;0.65;;;;;;;15.84;49.95;101286.69;5031319;28;20099;-86
2022/05/30 08:41:46;;;;;;;4.20;1.00;;;;;;;15.38;48.60;101273.47;5021124;28;20033;-87
2022/05/30 08:44:21;;;;;;;6.80;1.20;;;;;;;15.08;48.44;101280.66;5014037;28;20073;-86
2022/05/30 08:46:59;;;;;;;2.90;1.10;;;;;;;15.08;49.01;101265.28;5010843;28;20145;-86
2022/05/30 08:50:11;;;;;;;3.95;1.10;;;;;;;15.36;50.39;101294.53;5007611;28;20025;-86
2022/05/30 08:53:02;;;;;;;6.28;1.35;;;;;;;15.42;46.90;101290.75;5010163;28;20034;-87
2022/05/30 08:55:45;;;;;;;4.20;1.07;;;;;;;15.93;47.52;101294.19;5009902;28;20080;-86
2022/05/30 08:58:35;;;;;;;3.77;1.17;;;;;;;16.43;46.70;101297.53;5011370;28;20297;-83
2022/05/30 09:01:06;;;;;;;4.93;1.23;;;;;;;16.85;47.06;101302.50;5010813;28;20117;-84
2022/05/30 09:04:16;;;;;;;4.55;1.13;;;;;;;17.36;48.41;101306.50;5009761;28;20034;-87
2022/05/30 09:07:06;;;;;;;3.70;0.90;;;;;;;17.64;45.87;101290.38;5008515;28;20042;-86
2022/05/30 09:09:31;;;;;;;4.35;1.40;;;;;;;17.68;43.61;101292.22;4991079;28;20022;-86
2022/05/30 09:12:14;;;;;;;6.73;1.10;;;;;;;17.77;43.05;101286.94;4990545;28;20045;-87
2022/05/30 09:14:53;;;;;;;3.47;1.35;;;;;;;17.95;42.71;101290.69;4979696;28;20031;-85
2022/05/30 09:17:25;;;;;;;5.22;1.40;;;;;;;17.97;40.56;101290.41;5006603;28;20091;-85
2022/05/30 09:19:55;;;;;;;7.95;1.50;;;;;;;17.98;39.63;101295.56;5010251;28;20030;-86
2022/05/30 09:22:25;;;;;;;2.38;1.00;;;;;;;18.15;41.49;101289.59;5008994;28;20022;-86
2022/05/30 09:27:36;;;;;;;2.50;1.33;;;;;;;18.42;41.03;101293.44;5008395;28;20088;-89
2022/05/30 09:30:03;;;;;;;4.10;1.43;;;;;;;18.44;39.44;101293.16;5010463;28;20045;-87
2022/05/30 09:33:18;;;;;;;2.75;1.10;;;;;;;18.41;42.63;101291.03;5008656;28;20482;-88
2022/05/30 09:35:44;;;;;;;3.35;1.30;;;;;;;17.94;41.00;101282.88;5009387;28;20022;-87
2022/05/30 09:38:21;;;;;;;4.77;1.43;;;;;;;17.60;42.82;101284.75;5010171;28;20121;-87
2022/05/30 09:40:52;;;;;;;4.38;1.60;;;;;;;17.35;40.98;101283.22;5009544;28;20046;-84
2022/05/30 09:44:04;;;;;;;4.80;1.40;;;;;;;17.44;44.24;101288.78;5021824;22;20072;-88
2022/05/30 09:46:38;;;;;;;3.17;1.30;;;;;;;17.29;42.97;101295.22;5010380;28;20419;-88
2022/05/30 09:52:53;;;;;;;4.35;1.48;;;;;;;17.10;44.67;101277.88;4954564;28;20082;-87
2022/05/30 09:59:11;;;;;;;2.28;0.90;;;;;;;17.43;42.87;101295.28;5014258;28;20053;-88
2022/05/30 10:01:48;;;;;;;1.73;0.73;;;;;;;17.12;37.89;101293.00;5016959;28;20055;-89
2022/05/30 10:04:44;;;;;;;1.40;0.55;;;;;;;16.93;41.42;101304.59;5312816;22;20041;-89
2022/05/30 10:21:03;;;;;;;1.35;0.73;;;;;;;15.67;42.73;101280.88;5362826;22;20567;-88
2022/05/30 10:29:46;;;;;;;3.22;0.80;;;;;;;16.56;41.66;101287.94;4994642;28;20487;-87
2022/05/30 10:32:26;;;;;;;4.37;1.10;;;;;;;17.07;41.43;101283.06;5027544;28;20553;-87
2022/05/30 10:35:08;;;;;;;2.40;1.15;;;;;;;17.92;40.66;101285.88;5009307;28;20481;-87
2022/05/30 10:37:48;;;;;;;3.47;1.10;;;;;;;18.23;38.88;101296.25;5009464;28;20029;-88
2022/05/30 10:40:34;;;;;;;5.82;1.38;;;;;;;17.94;39.12;101299.13;4999298;28;20038;-88
2022/05/30 10:43:30;;;;;;;3.55;1.38;;;;;;;17.80;41.31;101293.66;5009922;28;20033;-88
2022/05/30 10:46:23;;;;;;;3.33;1.27;;;;;;;17.85;40.68;101297.09;5008591;28;20034;-88
2022/05/30 10:48:48;;;;;;;5.73;1.57;;;;;;;17.39;38.83;101298.59;5000580;28;20319;-88
2022/05/30 10:51:23;;;;;;;3.47;1.50;;;;;;;17.33;41.37;101312.50;4990150;28;20030;-88
2022/05/30 10:54:00;;;;;;;2.35;1.25;;;;;;;17.23;40.36;101302.59;5009511;28;20633;-88
2022/05/30 10:56:31;;;;;;;4.63;1.35;;;;;;;17.19;40.73;101304.28;5010907;28;20045;-88
2022/05/30 10:59:10;;;;;;;3.55;1.33;;;;;;;17.31;42.19;101310.09;5011894;28;20076;-88
2022/05/30 11:01:49;;;;;;;4.37;1.37;;;;;;;17.55;41.35;101314.63;5010027;28;20057;-88
2022/05/30 11:04:27;;;;;;;3.27;1.10;;;;;;;17.83;41.97;101309.34;4999007;28;20308;-87
2022/05/30 11:07:01;;;;;;;4.90;1.45;;;;;;;17.94;40.23;101310.78;5012686;28;20041;-87
2022/05/30 11:09:35;;;;;;;3.92;1.40;;;;;;;17.89;40.57;101300.03;5012668;28;20105;-87
2022/05/30 11:12:13;;;;;;;3.53;1.60;;;;;;;18.12;41.25;101301.03;5009872;28;20029;-87
2022/05/30 11:14:47;;;;;;;3.92;1.50;;;;;;;18.03;39.63;101307.44;5276448;22;20041;-88
2022/05/30 11:17:42;;;;;;;4.03;1.35;;;;;;;18.15;42.01;101299.63;5032715;28;20026;-87
2022/05/30 11:20:13;;;;;;;6.15;1.33;;;;;;;18.14;39.13;101298.84;5032158;28;20041;-88
2022/05/30 11:22:38;;;;;;;4.13;1.40;;;;;;;18.28;38.55;101304.25;5031872;28;20064;-88
2022/05/30 11:25:12;;;;;;;4.37;1.20;;;;;;;18.82;38.72;101294.88;5031491;28;20056;-88
2022/05/30 11:27:43;;;;;;;5.28;1.65;;;;;;;19.52;38.06;101285.50;5321108;22;20045;-88
2022/05/30 11:30:14;;;;;;;4.45;1.15;;;;;;;19.89;36.79;101295.56;5032040;28;20045;-92
2022/05/30 11:33:06;;;;;;;4.50;1.27;;;;;;;20.12;36.36;101304.50;5027037;28;20038;-93
2022/05/30 11:36:17;;;;;;;4.53;1.50;;;;;;;20.20;35.19;101297.50;4992242;28;20282;-88
2022/05/30 11:38:50;;;;;;;3.50;1.08;;;;;;;20.11;34.40;101300.94;4985330;28;20040;-87
2022/05/30 11:42:01;;;;;;;3.25;1.20;;;;;;;19.91;33.70;101290.59;5011022;28;20073;-87
2022/05/30 11:44:41;;;;;;;3.00;1.25;;;;;;;20.02;33.45;101297.41;4969894;28;20035;-87
2022/05/30 11:47:24;;;;;;;2.47;0.90;;;;;;;20.05;35.85;101298.69;4971050;28;20047;-86
2022/05/30 11:49:52;;;;;;;2.70;0.90;;;;;;;20.08;33.96;101295.34;4994096;28;20105;-87
2022/05/30 11:52:44;;;;;;;3.53;0.90;;;;;;;20.12;33.54;101302.56;5012472;28;20033;-87
2022/05/30 11:55:21;;;;;;;2.22;0.88;;;;;;;20.16;33.77;101286.44;4974307;28;20145;-87
2022/05/30 11:57:53;;;;;;;5.15;1.20;;;;;;;20.32;34.16;101286.81;5008077;28;20018;-87
2022/05/30 12:00:34;;;;;;;4.63;1.10;;;;;;;20.40;35.79;101291.50;5012623;28;20100;-87
2022/05/30 12:24:34;;;;;;;3.03;1.08;;;;;;;20.73;35.20;101293.88;5742968;22;20382;-87
2022/05/30 12:27:40;;;;;;;3.53;1.23;;;;;;;20.91;35.83;101307.56;5029831;28;20043;-87
2022/05/30 12:33:50;;;;;;;4.37;1.30;;;;;;;21.26;33.93;101280.38;4950410;28;20300;-87
2022/05/30 12:36:24;;;;;;;7.78;1.30;;;;;;;21.49;33.72;101307.47;4950410;28;20161;-86
2022/05/30 12:38:58;;;;;;;3.33;1.30;;;;;;;21.31;32.14;101285.69;4952867;28;20035;-88
2022/05/30 12:42:21;;;;;;;5.07;1.52;;;;;;;21.54;34.98;101304.59;4951374;28;20077;-87
2022/05/30 12:45:40;;;;;;;3.53;1.30;;;;;;;21.12;34.36;101296.88;4949127;28;20051;-87
2022/05/30 12:48:53;;;;;;;3.67;1.60;;;;;;;20.64;35.40;101290.31;4950505;28;20068;-86
2022/05/30 12:51:56;;;;;;;5.00;1.70;;;;;;;20.39;35.78;101295.34;5000110;28;20057;-88
2022/05/30 12:55:07;;;;;;;3.85;1.67;;;;;;;20.82;35.66;101263.97;5054483;22;20045;-92
2022/05/30 13:00:25;;;;;;;1.93;1.30;;;;;;;22.09;33.61;101286.72;5515783;22;20057;-88
2022/05/30 13:05:36;;;;;;;6.30;1.60;;;;;;;21.87;33.55;101293.22;5026705;28;20111;-88
2022/05/30 13:08:02;;;;;;;3.92;2.30;;;;;;;21.70;32.14;101287.78;5012565;28;20105;-85
2022/05/30 13:10:39;;;;;;;4.22;1.40;;;;;;;21.57;31.45;101287.59;5029008;28;20045;-84
2022/05/30 13:13:15;;;;;;;2.60;1.30;;;;;;;21.77;31.24;101290.81;5029613;28;20108;-84
2022/05/30 13:15:53;;;;;;;4.60;1.40;;;;;;;21.66;31.59;101287.59;4991209;28;20042;-84
2022/05/30 13:18:20;;;;;;;3.45;1.42;;;;;;;21.63;33.12;101286.34;5010459;28;20022;-85
2022/05/30 13:20:48;;;;;;;5.47;1.38;;;;;;;21.64;30.97;101287.13;5009205;28;20477;-84
2022/05/30 13:23:15;;;;;;;5.05;1.40;;;;;;;21.81;32.05;101289.03;5010856;28;20030;-85
2022/05/30 13:25:47;;;;;;;2.87;1.13;;;;;;;21.64;32.64;101292.56;5009804;28;20124;-85
2022/05/30 13:28:21;;;;;;;2.83;1.20;;;;;;;21.63;32.34;101294.50;5010687;28;20448;-85
2022/05/30 13:30:48;;;;;;;2.33;1.00;;;;;;;21.27;29.03;101292.88;5194629;22;20057;-85
2022/05/30 13:33:20;;;;;;;2.63;1.10;;;;;;;21.32;31.64;101291.91;5032130;22;20217;-84
2022/05/30 13:35:46;;;;;;;4.63;1.10;;;;;;;21.28;31.03;101293.66;5009598;28;20456;-85
2022/05/30 13:38:14;;;;;;;3.05;1.20;;;;;;;21.05;30.89;101287.56;5010404;28;20029;-83
2022/05/30 13:40:40;;;;;;;4.30;1.10;;;;;;;20.69;30.90;101284.72;5008438;28;20036;-86
2022/05/30 13:43:14;;;;;;;5.18;1.13;;;;;;;20.52;31.10;101281.94;4993075;28;20121;-86
2022/05/30 13:45:41;;;;;;;3.20;1.10;;;;;;;20.30;30.50;101283.59;5009245;28;20152;-85
2022/05/30 13:48:11;;;;;;;2.85;1.08;;;;;;;20.45;31.66;101284.34;5010511;28;20101;-83
2022/05/30 13:50:55;;;;;;;5.00;1.10;;;;;;;20.78;33.15;101284.00;5008707;28;20034;-84
2022/05/30 13:53:26;;;;;;;4.63;1.20;;;;;;;20.90;32.90;101294.28;5009137;28;20784;-86
2022/05/30 13:56:07;;;;;;;5.18;1.10;;;;;;;20.76;31.79;101284.28;5008837;28;20018;-88
2022/05/30 13:58:38;;;;;;;4.55;1.20;;;;;;;20.54;30.31;101277.00;5011288;28;20036;-88
2022/05/30 14:01:12;;;;;;;2.33;1.10;;;;;;;20.51;31.29;101274.91;4991908;28;20029;-88
2022/05/30 14:03:42;;;;;;;3.78;1.13;;;;;;;20.63;32.08;101280.56;5009405;28;20038;-89
2022/05/30 14:06:32;;;;;;;2.88;1.10;;;;;;;20.77;32.02;101280.44;4991826;28;20030;-88
2022/05/30 14:09:24;;;;;;;6.00;1.30;;;;;;;20.86;32.48;101277.75;5010151;28;20535;-89
2022/05/30 14:11:58;;;;;;;7.45;1.58;;;;;;;20.84;31.85;101277.25;5000625;28;20042;-89
2022/05/30 14:14:40;;;;;;;6.32;1.25;;;;;;;21.10;32.35;101274.59;5017203;28;20029;-87